Saturday, August 18, 2018, 2:52 AM GMT
Back to Local

CWAF, Ile Rouge Meteorological Aeronautical Presentation System

Location: , , Canada Lat: 48.083
Local Time: 2:52 AM GMT ( 2:52 GMT) Lon: -69.55
Time Zone: GMT Elev: 16 ft

Show me the last for .
Show Coded

Time T Td Feel RH Dir Speed Gust Alt SLP Vis Weather Sky Remarks
2018-08-18 02:00 51 - - 0 37 - - - 0 None
2018-08-18 01:00 55 - - 0 38 - - - 0 None
2018-08-18 00:00 50 - 41 0 36 - - - 0 None
2018-08-17 23:00 62 - - 0 35 - - - 0 None
2018-08-17 22:00 57 - - 0 35 - - - 0 1-hr Precip Total: 0.02"
2018-08-17 21:00 60 - - 0 35 - - - 0 None
2018-08-17 20:00 60 - - 0 26 - - - 0 None
2018-08-17 19:00 64 - - 0 18 - - - 0 None
2018-08-17 18:00 60 - - 0 8 - - - 0 None
2018-08-17 17:00 59 - - 0 7 - - - 0 None
2018-08-17 16:00 54 - - 0 6 - - - 0 None
2018-08-17 15:00 56 - - 0 6 - - - 0 None
2018-08-17 14:00 53 - - 0 6 - - - 0 None
2018-08-17 13:00 51 - - 0 6 - - - 0 None
2018-08-17 12:00 48 - 45 0 6 - - - 0 None
2018-08-17 11:00 47 - 45 0 6 - - - 0 None
2018-08-17 10:00 48 - 45 0 6 - - - 0 None
2018-08-17 09:00 49 - 46 0 7 - - - 0 None
2018-08-17 08:00 48 - 44 0 9 - - - 0 None
2018-08-17 07:00 50 - 46 0 9 - - - 0 None
2018-08-17 06:00 48 - 44 0 8 - - - 0 None
2018-08-17 05:00 45 - 40 0 9 - - - 0 None
2018-08-17 04:00 47 - 43 0 9 - - - 0 None
2018-08-17 03:00 46 - 42 0 9 - - - 0 None

Support USWX by starting your Amazon purchase here.